Station Historical Data
Daily Summary for January 21, 2018 Units:  English    Metric   Both
« Previous Day
Next Day »
Daily Weekly Monthly Yearly Custom
  High: Low: Average:
Temperature: TemperatureF °F 30.9 °F 36.1 °F
Dew Point: DewpointF °F 26.5 °F 32.3 °F
Humidity: Humidity% 81% 85%
Wind Speed: WindSpeedMPHmph 0.0mph 1.1mph
Wind Gust: WindSpeedGustMPHmph - -
Wind- - SW
Pressure: PressureIn in 30.07 in -
Precipitation: 0.00 in    
Historical Graphs
 
 
Tabular Data for January 21, 2018
Time Temperature Dew Point Pressure Wind Wind Speed Wind Gust Humidity Rainfall Rate (Hourly)
TemperatureF °F DewpointF °F PressureIn in Calm     Humidity% HourlyPrecipIn in
00:04 32.9 °F 28.3 °F 30.07 in SW 5.0 mph 12.0 mph 83% 0.00 in
00:09 32.9 °F 28.0 °F 30.07 in SW 4.0 mph 12.0 mph 82% 0.00 in
00:14 32.8 °F 27.9 °F 30.07 in SW 4.0 mph 8.0 mph 82% 0.00 in
00:19 32.9 °F 28.0 °F 30.08 in WSW 4.0 mph 8.0 mph 82% 0.00 in
00:24 33.0 °F 28.1 °F 30.08 in WSW 3.0 mph 7.0 mph 82% 0.00 in
00:29 33.0 °F 28.1 °F 30.08 in WSW 3.0 mph 7.0 mph 82% 0.00 in
00:34 32.9 °F 28.0 °F 30.08 in WSW 3.0 mph 7.0 mph 82% 0.00 in
00:44 32.8 °F 27.9 °F 30.08 in WSW 3.0 mph 7.0 mph 82% 0.00 in
00:54 32.9 °F 28.0 °F 30.09 in WSW 2.0 mph 6.0 mph 82% 0.00 in
00:59 32.9 °F 28.0 °F 30.08 in SW 4.0 mph 6.0 mph 82% 0.00 in
01:10 33.1 °F 28.2 °F 30.09 in WSW 3.0 mph 6.0 mph 82% 0.00 in
01:15 33.3 °F 28.4 °F 30.09 in WSW 4.0 mph 9.0 mph 82% 0.00 in
01:20 33.4 °F 28.5 °F 30.09 in WSW 5.0 mph 11.0 mph 82% 0.00 in
01:25 33.5 °F 28.3 °F 30.09 in WSW 5.0 mph 11.0 mph 81% 0.00 in
01:30 33.5 °F 28.3 °F 30.09 in WSW 4.0 mph 11.0 mph 81% 0.00 in
01:35 33.4 °F 28.2 °F 30.09 in WSW 4.0 mph 7.0 mph 81% 0.00 in
01:40 33.1 °F 27.9 °F 30.08 in WSW 5.0 mph 8.0 mph 81% 0.00 in
01:45 33.1 °F 27.9 °F 30.08 in WSW 3.0 mph 9.0 mph 81% 0.00 in
01:50 33.0 °F 27.8 °F 30.08 in WSW 3.0 mph 9.0 mph 81% 0.00 in
01:55 33.0 °F 27.8 °F 30.08 in WSW 3.0 mph 8.0 mph 81% 0.00 in
02:00 33.0 °F 27.8 °F 30.08 in WSW 3.0 mph 6.0 mph 81% 0.00 in
02:05 33.0 °F 27.8 °F 30.08 in SW 4.0 mph 6.0 mph 81% 0.00 in
02:10 33.0 °F 27.8 °F 30.09 in SW 3.0 mph 6.0 mph 81% 0.00 in
02:15 32.7 °F 27.5 °F 30.09 in SW 2.0 mph 4.0 mph 81% 0.00 in
02:20 32.5 °F 27.3 °F 30.10 in SW 3.0 mph 4.0 mph 81% 0.00 in
02:25 32.4 °F 27.2 °F 30.10 in SW 2.0 mph 4.0 mph 81% 0.00 in
02:30 32.3 °F 27.1 °F 30.10 in SW 2.0 mph 5.0 mph 81% 0.00 in
02:40 32.1 °F 26.9 °F 30.11 in WSW 1.0 mph 6.0 mph 81% 0.00 in
02:45 32.2 °F 27.0 °F 30.11 in WSW 2.0 mph 4.0 mph 81% 0.00 in
02:50 32.4 °F 27.2 °F 30.12 in WSW 3.0 mph 5.0 mph 81% 0.00 in
03:00 32.8 °F 27.6 °F 30.12 in WSW 4.0 mph 6.0 mph 81% 0.00 in
03:05 32.7 °F 27.5 °F 30.11 in West 2.0 mph 7.0 mph 81% 0.00 in
03:10 32.7 °F 27.5 °F 30.12 in WSW 4.0 mph 7.0 mph 81% 0.00 in
03:15 32.8 °F 27.6 °F 30.12 in WSW 4.0 mph 6.0 mph 81% 0.00 in
03:20 32.6 °F 27.4 °F 30.11 in WSW 2.0 mph 5.0 mph 81% 0.00 in
03:25 32.4 °F 27.2 °F 30.11 in WSW 2.0 mph 5.0 mph 81% 0.00 in
03:30 32.0 °F 26.8 °F 30.11 in WSW 2.0 mph 4.0 mph 81% 0.00 in
03:35 31.7 °F 26.8 °F 30.11 in WSW 2.0 mph 4.0 mph 82% 0.00 in
03:40 31.5 °F 26.6 °F 30.11 in WSW 2.0 mph 4.0 mph 82% 0.00 in
03:45 31.5 °F 26.6 °F 30.11 in SW 2.0 mph 7.0 mph 82% 0.00 in
03:50 31.5 °F 26.6 °F 30.11 in SW 2.0 mph 5.0 mph 82% 0.00 in
03:55 31.5 °F 26.9 °F 30.11 in SW 3.0 mph 4.0 mph 83% 0.00 in
04:00 31.5 °F 26.9 °F 30.11 in SW 2.0 mph 4.0 mph 83% 0.00 in
04:05 31.4 °F 26.8 °F 30.10 in SW 2.0 mph 5.0 mph 83% 0.00 in
04:10 31.2 °F 26.6 °F 30.10 in SW 2.0 mph 5.0 mph 83% 0.00 in
04:15 31.1 °F 26.5 °F 30.10 in SW 2.0 mph 4.0 mph 83% 0.00 in
04:20 31.1 °F 26.5 °F 30.10 in SW 2.0 mph 5.0 mph 83% 0.00 in
04:25 31.1 °F 26.8 °F 30.10 in Calm   3.0 mph 84% 0.00 in
04:29 31.1 °F 26.8 °F 30.10 in SW 1.0 mph 4.0 mph 84% 0.00 in
04:35 31.2 °F 26.9 °F 30.10 in SW 1.0 mph 4.0 mph 84% 0.00 in
04:40 31.3 °F 27.0 °F 30.10 in SW 2.0 mph 5.0 mph 84% 0.00 in
04:45 31.1 °F 26.8 °F 30.11 in SW 1.0 mph 5.0 mph 84% 0.00 in
04:50 31.1 °F 27.1 °F 30.11 in SW 1.0 mph 3.0 mph 85% 0.00 in
04:55 31.0 °F 27.0 °F 30.11 in SW 2.0 mph 4.0 mph 85% 0.00 in
04:59 30.9 °F 26.9 °F 30.11 in SW 2.0 mph 4.0 mph 85% 0.00 in
05:05 31.0 °F 27.0 °F 30.12 in SW 2.0 mph 4.0 mph 85% 0.00 in
05:09 31.2 °F 27.5 °F 30.12 in SW 3.0 mph 6.0 mph 86% 0.00 in
05:14 31.3 °F 27.6 °F 30.12 in SW 2.0 mph 4.0 mph 86% 0.00 in
05:20 31.4 °F 27.7 °F 30.11 in SW 4.0 mph 5.0 mph 86% 0.00 in
05:25 31.5 °F 27.8 °F 30.12 in SW 1.0 mph 5.0 mph 86% 0.00 in
05:30 31.3 °F 27.6 °F 30.12 in SW 2.0 mph 3.0 mph 86% 0.00 in
05:34 31.3 °F 27.6 °F 30.11 in SW 1.0 mph 3.0 mph 86% 0.00 in
05:40 31.2 °F 27.5 °F 30.11 in SW 1.0 mph 4.0 mph 86% 0.00 in
05:45 31.3 °F 27.9 °F 30.12 in SW 2.0 mph 6.0 mph 87% 0.00 in
05:50 31.5 °F 28.1 °F 30.12 in SW 2.0 mph 6.0 mph 87% 0.00 in
05:55 31.8 °F 28.4 °F 30.12 in SW 2.0 mph 6.0 mph 87% 0.00 in
06:00 32.0 °F 28.6 °F 30.11 in Calm   5.0 mph 87% 0.00 in
06:05 32.2 °F 28.8 °F 30.12 in SW 2.0 mph 6.0 mph 87% 0.00 in
06:09 32.2 °F 28.8 °F 30.12 in SW 2.0 mph 6.0 mph 87% 0.00 in
06:14 32.2 °F 28.8 °F 30.12 in Calm   4.0 mph 87% 0.00 in
06:19 32.2 °F 28.8 °F 30.12 in SW 1.0 mph 5.0 mph 87% 0.00 in
06:24 32.4 °F 29.2 °F 30.13 in Calm   5.0 mph 88% 0.00 in
06:30 32.3 °F 29.1 °F 30.13 in Calm   5.0 mph 88% 0.00 in
06:35 32.3 °F 29.1 °F 30.13 in Calm   4.0 mph 88% 0.00 in
06:40 32.4 °F 29.2 °F 30.13 in SW 2.0 mph 5.0 mph 88% 0.00 in
06:44 32.3 °F 29.1 °F 30.13 in SW 2.0 mph 5.0 mph 88% 0.00 in
06:50 32.4 °F 29.2 °F 30.13 in SW 2.0 mph 7.0 mph 88% 0.00 in
06:55 32.5 °F 29.3 °F 30.13 in SW 2.0 mph 7.0 mph 88% 0.00 in
07:00 32.5 °F 29.3 °F 30.13 in SW 2.0 mph 4.0 mph 88% 0.00 in
07:05 32.3 °F 29.1 °F 30.13 in SW 2.0 mph 4.0 mph 88% 0.00 in
07:10 32.0 °F 28.8 °F 30.14 in SW 1.0 mph 4.0 mph 88% 0.00 in
07:14 31.8 °F 28.7 °F 30.14 in Calm   4.0 mph 88% 0.00 in
07:19 31.8 °F 28.7 °F 30.13 in Calm   3.0 mph 88% 0.00 in
07:24 31.7 °F 28.6 °F 30.13 in SW 2.0 mph 2.0 mph 88% 0.00 in
07:29 31.4 °F 28.3 °F 30.14 in Calm   3.0 mph 88% 0.00 in
07:35 31.1 °F 28.0 °F 30.14 in Calm     88% 0.00 in
07:40 31.0 °F 27.9 °F 30.14 in Calm     88% 0.00 in
07:45 31.1 °F 28.2 °F 30.14 in SW 1.0 mph 3.0 mph 89% 0.00 in
07:49 31.6 °F 28.7 °F 30.14 in SW 1.0 mph 5.0 mph 89% 0.00 in
07:54 32.0 °F 29.1 °F 30.14 in SW 2.0 mph 5.0 mph 89% 0.00 in
08:00 32.4 °F 29.5 °F 30.14 in SW 2.0 mph 6.0 mph 89% 0.00 in
08:05 32.6 °F 29.7 °F 30.14 in SW 3.0 mph 6.0 mph 89% 0.00 in
08:10 32.7 °F 29.8 °F 30.14 in SW 2.0 mph 5.0 mph 89% 0.00 in
08:14 32.8 °F 30.2 °F 30.14 in SW 2.0 mph 6.0 mph 90% 0.00 in
08:19 33.0 °F 30.4 °F 30.14 in SW 1.0 mph 6.0 mph 90% 0.00 in
08:24 33.2 °F 30.6 °F 30.14 in SW 3.0 mph 6.0 mph 90% 0.00 in
08:29 33.4 °F 30.8 °F 30.14 in Calm   5.0 mph 90% 0.00 in
08:34 33.5 °F 30.9 °F 30.14 in SW 4.0 mph 4.0 mph 90% 0.00 in
08:40 33.8 °F 31.2 °F 30.14 in SW 3.0 mph 8.0 mph 90% 0.00 in
08:45 34.0 °F 31.1 °F 30.14 in SSW 4.0 mph 5.0 mph 89% 0.00 in
08:50 34.2 °F 31.6 °F 30.14 in SW 3.0 mph 6.0 mph 90% 0.00 in
08:54 34.4 °F 31.8 °F 30.14 in SW 2.0 mph 6.0 mph 90% 0.00 in
08:59 34.5 °F 31.9 °F 30.14 in SW 2.0 mph 6.0 mph 90% 0.00 in
09:04 34.8 °F 31.9 °F 30.15 in SW 2.0 mph 5.0 mph 89% 0.00 in
09:10 34.9 °F 32.3 °F 30.15 in SW 2.0 mph 5.0 mph 90% 0.00 in
09:15 35.3 °F 32.7 °F 30.15 in SW 1.0 mph 3.0 mph 90% 0.00 in
09:20 35.6 °F 33.0 °F 30.15 in SW 1.0 mph 3.0 mph 90% 0.00 in
09:25 35.9 °F 33.0 °F 30.15 in SW 1.0 mph 4.0 mph 89% 0.00 in
09:29 36.1 °F 33.2 °F 30.15 in SW 1.0 mph 4.0 mph 89% 0.00 in
09:34 36.3 °F 33.4 °F 30.15 in SW 1.0 mph 3.0 mph 89% 0.00 in
09:39 36.6 °F 33.7 °F 30.15 in Calm   2.0 mph 89% 0.00 in
09:44 36.8 °F 33.9 °F 30.15 in Calm   4.0 mph 89% 0.00 in
09:49 37.0 °F 34.1 °F 30.15 in Calm     89% 0.00 in
09:55 37.1 °F 33.9 °F 30.15 in Calm     88% 0.00 in
10:00 37.3 °F 34.1 °F 30.15 in SW 1.0 mph 4.0 mph 88% 0.00 in
10:04 37.6 °F 34.4 °F 30.15 in SW 2.0 mph 4.0 mph 88% 0.00 in
10:09 37.7 °F 34.5 °F 30.15 in SW 1.0 mph 3.0 mph 88% 0.00 in
10:14 37.9 °F 34.4 °F 30.15 in SW 2.0 mph 4.0 mph 87% 0.00 in
10:20 38.1 °F 34.6 °F 30.15 in SW 3.0 mph 6.0 mph 87% 0.00 in
10:25 38.2 °F 34.7 °F 30.15 in SW 2.0 mph 6.0 mph 87% 0.00 in
10:30 38.4 °F 34.9 °F 30.15 in SW 2.0 mph 5.0 mph 87% 0.00 in
10:34 38.4 °F 34.6 °F 30.15 in SW 3.0 mph 6.0 mph 86% 0.00 in
10:39 38.5 °F 34.7 °F 30.14 in SW 3.0 mph 6.0 mph 86% 0.00 in
10:44 38.6 °F 34.8 °F 30.14 in SW 1.0 mph 4.0 mph 86% 0.00 in
10:49 38.7 °F 34.6 °F 30.14 in SW 2.0 mph 4.0 mph 85% 0.00 in
10:54 38.8 °F 34.7 °F 30.14 in Calm   4.0 mph 85% 0.00 in
10:59 38.8 °F 34.7 °F 30.14 in Calm   5.0 mph 85% 0.00 in
11:04 38.9 °F 34.8 °F 30.14 in SW 2.0 mph 4.0 mph 85% 0.00 in
11:09 39.0 °F 34.9 °F 30.14 in SW 2.0 mph 5.0 mph 85% 0.00 in
11:14 39.3 °F 34.9 °F 30.14 in SW 2.0 mph 5.0 mph 84% 0.00 in
11:19 39.4 °F 35.0 °F 30.14 in SSW 2.0 mph 5.0 mph 84% 0.00 in
11:24 39.4 °F 35.0 °F 30.13 in SSW 1.0 mph 4.0 mph 84% 0.00 in
11:30 39.4 °F 35.0 °F 30.13 in Calm   3.0 mph 84% 0.00 in
11:35 39.5 °F 35.1 °F 30.13 in Calm   4.0 mph 84% 0.00 in
11:39 39.4 °F 35.0 °F 30.13 in SSW 2.0 mph 4.0 mph 84% 0.00 in
11:44 39.4 °F 35.0 °F 30.12 in SSW 1.0 mph 4.0 mph 84% 0.00 in
11:49 39.4 °F 35.0 °F 30.12 in Calm     84% 0.00 in
11:54 39.4 °F 35.0 °F 30.12 in Calm   2.0 mph 84% 0.00 in
11:59 39.5 °F 35.1 °F 30.12 in Calm   2.0 mph 84% 0.00 in
12:04 39.5 °F 35.1 °F 30.12 in Calm   2.0 mph 84% 0.00 in
12:09 39.6 °F 34.9 °F 30.12 in Calm     83% 0.00 in
12:15 39.7 °F 35.3 °F 30.11 in SSW 2.0 mph 3.0 mph 84% 0.00 in
12:19 39.9 °F 35.2 °F 30.12 in SSW 1.0 mph 4.0 mph 83% 0.00 in
12:24 40.0 °F 35.3 °F 30.12 in SSW 2.0 mph 4.0 mph 83% 0.00 in
12:29 40.0 °F 35.3 °F 30.11 in SW 2.0 mph 4.0 mph 83% 0.00 in
12:34 40.1 °F 35.4 °F 30.11 in SW 2.0 mph 4.0 mph 83% 0.00 in
12:40 40.2 °F 35.4 °F 30.11 in SW 2.0 mph 6.0 mph 83% 0.00 in
12:45 40.2 °F 35.4 °F 30.10 in Calm   6.0 mph 83% 0.00 in
12:49 40.3 °F 35.5 °F 30.10 in SW 2.0 mph 6.0 mph 83% 0.00 in
12:54 40.3 °F 35.5 °F 30.10 in SW 2.0 mph 4.0 mph 83% 0.00 in
12:59 40.4 °F 35.6 °F 30.10 in SW 2.0 mph 5.0 mph 83% 0.00 in
13:04 40.3 °F 35.5 °F 30.10 in Calm   3.0 mph 83% 0.00 in
13:09 40.4 °F 35.9 °F 30.09 in SW 1.0 mph 4.0 mph 84% 0.00 in
13:14 40.7 °F 35.9 °F 30.09 in SW 1.0 mph 4.0 mph 83% 0.00 in
13:19 40.9 °F 36.1 °F 30.09 in Calm   3.0 mph 83% 0.00 in
13:24 41.2 °F 36.4 °F 30.08 in SW 1.0 mph 5.0 mph 83% 0.00 in
13:29 41.3 °F 36.2 °F 30.08 in SW 1.0 mph 5.0 mph 82% 0.00 in
13:34 41.4 °F 36.3 °F 30.09 in SW 4.0 mph 5.0 mph 82% 0.00 in
13:39 41.3 °F 36.2 °F 30.08 in SW 1.0 mph 4.0 mph 82% 0.00 in
13:44 41.1 °F 36.0 °F 30.08 in SW 2.0 mph 5.0 mph 82% 0.00 in
13:49 40.9 °F 35.8 °F 30.08 in SW 2.0 mph 4.0 mph 82% 0.00 in
13:54 40.9 °F 35.8 °F 30.08 in SW 2.0 mph 4.0 mph 82% 0.00 in
13:59 40.9 °F 35.8 °F 30.08 in SW 2.0 mph 4.0 mph 82% 0.00 in
14:04 40.9 °F 35.8 °F 30.08 in SW 1.0 mph 3.0 mph 82% 0.00 in
14:09 41.0 °F 35.9 °F 30.08 in SW 1.0 mph 3.0 mph 82% 0.00 in
14:15 40.9 °F 35.8 °F 30.08 in SW 1.0 mph 3.0 mph 82% 0.00 in
14:20 40.8 °F 35.7 °F 30.08 in SW 1.0 mph 2.0 mph 82% 0.00 in
14:24 40.8 °F 35.7 °F 30.08 in Calm   2.0 mph 82% 0.00 in
14:29 40.7 °F 35.6 °F 30.08 in Calm     82% 0.00 in
14:34 40.9 °F 35.8 °F 30.08 in Calm   1.0 mph 82% 0.00 in
14:39 40.9 °F 35.8 °F 30.07 in Calm     82% 0.00 in
14:44 40.9 °F 35.8 °F 30.08 in Calm     82% 0.00 in
14:49 41.0 °F 35.9 °F 30.07 in Calm     82% 0.00 in
14:54 40.8 °F 35.7 °F 30.07 in Calm     82% 0.00 in
14:59 40.9 °F 35.8 °F 30.07 in Calm     82% 0.00 in
15:04 40.9 °F 35.8 °F 30.07 in Calm     82% 0.00 in
15:09 40.9 °F 35.8 °F 30.07 in Calm     82% 0.00 in
15:14 41.1 °F 36.0 °F 30.07 in Calm     82% 0.00 in
15:24 41.0 °F 35.9 °F 30.07 in Calm   2.0 mph 82% 0.00 in
15:29 40.9 °F 35.8 °F 30.07 in Calm   1.0 mph 82% 0.00 in
15:34 40.8 °F 35.7 °F 30.08 in Calm   1.0 mph 82% 0.00 in
15:44 40.6 °F 35.5 °F 30.08 in Calm     82% 0.00 in
15:49 40.5 °F 35.4 °F 30.08 in Calm   1.0 mph 82% 0.00 in
15:54 40.4 °F 35.3 °F 30.08 in Calm   1.0 mph 82% 0.00 in
15:59 40.3 °F 35.2 °F 30.08 in Calm     82% 0.00 in
16:09 40.0 °F 35.3 °F 30.08 in Calm     83% 0.00 in
16:14 40.0 °F 35.3 °F 30.08 in Calm     83% 0.00 in
16:19 40.0 °F 35.3 °F 30.08 in Calm     83% 0.00 in
16:24 40.0 °F 35.3 °F 30.08 in Calm     83% 0.00 in
16:29 39.9 °F 35.2 °F 30.08 in SW 1.0 mph 2.0 mph 83% 0.00 in
16:34 39.9 °F 35.2 °F 30.08 in Calm   2.0 mph 83% 0.00 in
16:44 39.7 °F 35.3 °F 30.08 in Calm   2.0 mph 84% 0.00 in
16:49 39.8 °F 35.4 °F 30.08 in Calm   3.0 mph 84% 0.00 in
16:54 39.6 °F 35.2 °F 30.08 in Calm   3.0 mph 84% 0.00 in
16:59 39.5 °F 35.1 °F 30.08 in Calm     84% 0.00 in
17:04 39.3 °F 34.9 °F 30.08 in Calm     84% 0.00 in
17:14 39.2 °F 34.8 °F 30.09 in Calm     84% 0.00 in
17:19 39.2 °F 34.8 °F 30.08 in Calm     84% 0.00 in
17:24 39.2 °F 35.1 °F 30.08 in Calm     85% 0.00 in
17:29 39.3 °F 35.2 °F 30.09 in Calm   4.0 mph 85% 0.00 in
17:34 39.2 °F 35.1 °F 30.09 in Calm   1.0 mph 85% 0.00 in
17:39 39.0 °F 34.9 °F 30.09 in Calm   1.0 mph 85% 0.00 in
17:44 38.9 °F 34.8 °F 30.09 in Calm     85% 0.00 in
17:49 38.9 °F 34.8 °F 30.09 in Calm     85% 0.00 in
17:54 38.9 °F 34.8 °F 30.09 in Calm   2.0 mph 85% 0.00 in
17:59 38.8 °F 34.7 °F 30.09 in Calm   1.0 mph 85% 0.00 in
18:09 38.7 °F 34.9 °F 30.09 in Calm     86% 0.00 in
18:14 38.6 °F 34.8 °F 30.09 in Calm     86% 0.00 in
18:19 38.5 °F 35.0 °F 30.09 in Calm     87% 0.00 in
18:24 38.4 °F 34.9 °F 30.09 in Calm     87% 0.00 in
18:29 38.3 °F 34.8 °F 30.09 in Calm     87% 0.00 in
18:34 38.3 °F 34.8 °F 30.09 in Calm     87% 0.00 in
18:39 38.3 °F 35.1 °F 30.09 in Calm     88% 0.00 in
18:44 38.2 °F 35.0 °F 30.09 in Calm     88% 0.00 in
18:49 38.2 °F 35.0 °F 30.09 in Calm     88% 0.00 in
18:54 38.1 °F 34.9 °F 30.09 in Calm     88% 0.00 in
18:59 38.2 °F 35.0 °F 30.09 in Calm     88% 0.00 in
19:04 38.1 °F 34.9 °F 30.09 in Calm     88% 0.00 in
19:09 38.0 °F 35.0 °F 30.09 in Calm   2.0 mph 89% 0.00 in
19:14 38.0 °F 35.0 °F 30.09 in Calm     89% 0.00 in
19:19 37.9 °F 34.9 °F 30.09 in Calm     89% 0.00 in
19:24 37.8 °F 34.8 °F 30.09 in Calm     89% 0.00 in
19:29 37.7 °F 34.8 °F 30.09 in Calm     89% 0.00 in
19:34 37.7 °F 34.8 °F 30.09 in Calm     89% 0.00 in
19:39 37.6 °F 34.7 °F 30.09 in Calm     89% 0.00 in
19:44 37.7 °F 34.8 °F 30.09 in Calm     89% 0.00 in
19:49 37.7 °F 34.8 °F 30.09 in Calm     89% 0.00 in
19:54 37.7 °F 34.8 °F 30.09 in Calm     89% 0.00 in
19:59 37.7 °F 35.0 °F 30.09 in Calm     90% 0.00 in
20:04 37.7 °F 35.0 °F 30.09 in Calm     90% 0.00 in
20:09 37.7 °F 35.0 °F 30.09 in Calm     90% 0.00 in
20:14 37.7 °F 35.0 °F 30.09 in Calm     90% 0.00 in
20:19 37.7 °F 35.0 °F 30.08 in Calm     90% 0.00 in
20:24 37.6 °F 34.9 °F 30.08 in Calm     90% 0.00 in
20:29 37.5 °F 34.8 °F 30.08 in Calm     90% 0.00 in
20:34 37.4 °F 34.7 °F 30.09 in Calm     90% 0.00 in
20:39 37.3 °F 34.6 °F 30.09 in Calm     90% 0.00 in
20:44 37.1 °F 34.4 °F 30.09 in Calm     90% 0.00 in
20:49 37.1 °F 34.4 °F 30.09 in Calm     90% 0.00 in
20:54 37.0 °F 34.3 °F 30.09 in Calm     90% 0.00 in
20:59 37.0 °F 34.3 °F 30.09 in Calm     90% 0.00 in
21:04 37.0 °F 34.3 °F 30.09 in Calm     90% 0.00 in
21:09 36.9 °F 34.2 °F 30.09 in Calm     90% 0.00 in
21:14 36.8 °F 34.1 °F 30.10 in Calm     90% 0.00 in
21:19 36.8 °F 34.1 °F 30.09 in Calm     90% 0.00 in
21:24 36.8 °F 34.4 °F 30.09 in Calm     91% 0.00 in
21:29 36.8 °F 34.4 °F 30.09 in Calm     91% 0.00 in
21:44 37.1 °F 34.7 °F 30.08 in Calm     91% 0.00 in
21:49 37.1 °F 34.7 °F 30.09 in Calm     91% 0.00 in
21:59 37.2 °F 34.8 °F 30.09 in Calm     91% 0.00 in
22:04 37.2 °F 34.8 °F 30.08 in Calm     91% 0.00 in
22:09 37.2 °F 34.8 °F 30.08 in Calm     91% 0.00 in
22:19 37.1 °F 34.7 °F 30.08 in Calm     91% 0.00 in
22:29 37.1 °F 34.7 °F 30.08 in Calm     91% 0.00 in
22:34 37.1 °F 34.7 °F 30.09 in Calm     91% 0.01 in
22:39 37.2 °F 34.8 °F 30.08 in Calm     91% 0.01 in
22:44 37.2 °F 34.8 °F 30.09 in Calm     91% 0.01 in
22:59 36.9 °F 34.5 °F 30.09 in Calm     91% 0.01 in
23:04 37.1 °F 34.7 °F 30.08 in Calm     91% 0.01 in
23:14 37.3 °F 34.9 °F 30.08 in Calm     91% 0.01 in
23:19 37.4 °F 35.0 °F 30.08 in Calm     91% 0.01 in
23:24 37.5 °F 35.1 °F 30.08 in Calm     91% 0.01 in
23:29 37.5 °F 35.1 °F 30.08 in Calm     91% 0.01 in
23:34 37.6 °F 35.5 °F 30.08 in Calm     92% 0.00 in
23:44 37.6 °F 35.5 °F 30.08 in Calm     92% 0.00 in
23:49 37.6 °F 35.5 °F 30.08 in Calm     92% 0.00 in
23:54 37.5 °F 35.4 °F 30.08 in Calm     92% 0.00 in
23:59 37.6 °F 35.5 °F 30.08 in Calm     92% 0.00 in
Buffalo, New York, USA
Compliments of Weather Underground - 2.25 mb